Time;durP1;ratioP1;P1;durP2;ratioP2;P2;SDS_P1;SDS_P2;PMS_P1;PMS_P2;Temp;Humidity;BMP_temperature;BMP_pressure;BME280_temperature;BME280_humidity;BME280_pressure;Samples;Min_cycle;Max_cycle;Signal;HPM_P1;HPM_P2
2021/12/26 00:00:56;;;;;;;;;;;4.10;99.90;;;;;;5043499;28;20383;-87
2021/12/26 00:03:23;;;;;;;;;;;4.10;99.90;;;;;;5062817;28;19912;-87
2021/12/26 00:05:49;;;;;;;;;;;4.10;99.90;;;;;;5053356;28;19922;-90
2021/12/26 00:08:14;;;;;;;;;;;4.20;99.90;;;;;;5046289;28;20079;-87
2021/12/26 00:10:40;;;;;;;;;;;4.10;99.90;;;;;;5063074;28;19920;-88
2021/12/26 00:13:06;;;;;;;;;;;4.10;99.90;;;;;;5059465;28;20516;-86
2021/12/26 00:15:31;;;;;;;;;;;4.00;99.90;;;;;;5058610;28;19923;-89
2021/12/26 00:17:57;;;;;;;;;;;4.00;99.90;;;;;;5074623;28;19908;-90
2021/12/26 00:20:23;;;;;;;;;;;3.90;99.90;;;;;;5073842;28;19916;-89
2021/12/26 00:22:48;;;;;;;;;;;3.80;99.90;;;;;;5073912;28;19943;-88
2021/12/26 00:25:15;;;;;;;;;;;3.80;99.90;;;;;;5072799;28;19962;-91
2021/12/26 00:27:41;;;;;;;;;;;3.70;99.90;;;;;;5057504;28;19955;-90
2021/12/26 00:30:12;;;;;;;;;;;3.80;99.90;;;;;;5055270;28;19916;-88
2021/12/26 00:32:39;;;;;;;;;;;3.80;99.90;;;;;;5054391;28;19920;-88
2021/12/26 00:35:10;;;;;;;;;;;3.70;99.90;;;;;;5073383;28;20012;-89
2021/12/26 00:37:35;;;;;;;;;;;3.70;99.90;;;;;;5065051;28;19959;-90
2021/12/26 00:40:02;;;;;;;;;;;3.70;99.90;;;;;;5049391;28;19917;-88
2021/12/26 00:42:27;;;;;;;;;;;3.70;99.90;;;;;;5048440;28;19921;-88
2021/12/26 00:44:53;;;;;;;;;;;3.60;99.90;;;;;;5076347;28;19946;-89
2021/12/26 00:47:20;;;;;;;;;;;3.60;99.90;;;;;;5075211;28;20024;-89
2021/12/26 00:49:45;;;;;;;;;;;3.60;99.90;;;;;;5066008;28;19916;-89
2021/12/26 00:52:11;;;;;;;;;;;3.60;99.90;;;;;;5064246;28;19919;-90
2021/12/26 00:54:36;;;;;;;;;;;3.50;99.90;;;;;;5067502;28;20252;-88
2021/12/26 00:57:05;;;;;;;;;;;3.50;99.90;;;;;;5060422;28;19951;-87
2021/12/26 00:59:31;;;;;;;;;;;3.50;99.90;;;;;;5066883;28;20319;-89
2021/12/26 01:01:56;;;;;;;;;;;3.50;99.90;;;;;;5046938;28;19967;-89
2021/12/26 01:04:23;;;;;;;;;;;3.50;99.90;;;;;;5061688;28;19908;-89
2021/12/26 01:06:50;;;;;;;;;;;3.50;99.90;;;;;;5057529;28;20012;-87
2021/12/26 01:09:21;;;;;;;;;;;3.40;99.90;;;;;;5064682;28;19916;-89
2021/12/26 01:11:52;;;;;;;;;;;3.40;99.90;;;;;;5058063;28;19913;-89
2021/12/26 01:14:25;;;;;;;;;;;3.50;99.90;;;;;;5073209;28;19912;-89
2021/12/26 01:17:00;;;;;;;;;;;3.50;99.90;;;;;;5065043;28;19915;-86
2021/12/26 01:19:32;;;;;;;;;;;3.50;99.90;;;;;;5078416;28;20025;-88
2021/12/26 01:21:58;;;;;;;;;;;3.60;99.90;;;;;;5067695;28;19920;-88
2021/12/26 01:24:23;;;;;;;;;;;3.50;99.90;;;;;;5048033;28;19932;-88
2021/12/26 01:26:49;;;;;;;;;;;3.60;99.90;;;;;;5056081;28;19913;-89
2021/12/26 01:29:15;;;;;;;;;;;3.50;99.90;;;;;;5062767;28;20267;-87
2021/12/26 01:31:40;;;;;;;;;;;3.50;99.90;;;;;;5070936;28;19970;-90
2021/12/26 01:34:06;;;;;;;;;;;3.40;99.90;;;;;;5057938;28;19912;-89
2021/12/26 01:36:33;;;;;;;;;;;3.30;99.90;;;;;;5070698;28;20265;-90
2021/12/26 01:39:00;;;;;;;;;;;3.20;99.90;;;;;;5051627;28;19924;-89
2021/12/26 01:41:28;;;;;;;;;;;3.10;99.90;;;;;;5059131;28;20023;-89
2021/12/26 01:43:57;;;;;;;;;;;3.10;99.90;;;;;;5045109;28;19940;-89
2021/12/26 01:46:24;;;;;;;;;;;3.20;99.90;;;;;;5060930;28;20030;-89
2021/12/26 01:49:00;;;;;;;;;;;3.30;99.90;;;;;;5075239;28;19919;-90
2021/12/26 01:51:27;;;;;;;;;;;3.30;99.90;;;;;;5078082;28;19909;-90
2021/12/26 01:53:52;;;;;;;;;;;3.40;99.90;;;;;;5063400;28;19939;-90
2021/12/26 01:56:19;;;;;;;;;;;3.30;99.90;;;;;;5060337;28;19957;-90
2021/12/26 01:58:45;;;;;;;;;;;3.20;99.90;;;;;;5060580;28;20242;-91
2021/12/26 02:01:11;;;;;;;;;;;3.20;99.90;;;;;;5074654;28;20403;-88
2021/12/26 02:03:38;;;;;;;;;;;3.30;99.90;;;;;;5065814;28;19915;-88
2021/12/26 02:06:05;;;;;;;;;;;3.20;99.90;;;;;;5062948;28;19917;-88
2021/12/26 02:08:33;;;;;;;;;;;3.10;99.90;;;;;;5064870;28;19916;-88
2021/12/26 02:11:02;;;;;;;;;;;3.00;99.90;;;;;;5063072;28;20003;-88
2021/12/26 02:13:41;;;;;;;;;;;3.00;99.90;;;;;;5060995;28;20351;-89
2021/12/26 02:16:07;;;;;;;;;;;3.00;99.90;;;;;;5040580;28;19916;-90
2021/12/26 02:18:33;;;;;;;;;;;3.10;99.90;;;;;;5064093;28;19909;-88
2021/12/26 02:24:01;;;;;;;;;;;3.00;99.90;;;;;;5056980;28;20303;-90
2021/12/26 02:29:12;;;;;;;;;;;2.90;99.90;;;;;;5061924;28;20656;-89
2021/12/26 02:31:38;;;;;;;;;;;3.00;99.90;;;;;;5085159;28;19912;-88
2021/12/26 02:34:03;;;;;;;;;;;2.80;99.90;;;;;;5075338;28;19912;-86
2021/12/26 02:36:36;;;;;;;;;;;2.80;99.90;;;;;;5068963;28;19924;-90
2021/12/26 02:39:11;;;;;;;;;;;2.80;99.90;;;;;;5068510;28;19948;-87
2021/12/26 02:41:36;;;;;;;;;;;2.80;99.90;;;;;;5080803;28;19922;-87
2021/12/26 02:44:02;;;;;;;;;;;2.80;99.90;;;;;;5081011;28;19916;-90
2021/12/26 02:46:28;;;;;;;;;;;2.90;99.90;;;;;;5077250;28;19959;-90
2021/12/26 02:48:54;;;;;;;;;;;3.00;99.90;;;;;;5078855;28;20014;-90
2021/12/26 02:51:19;;;;;;;;;;;3.00;99.90;;;;;;5083553;28;20318;-89
2021/12/26 02:53:45;;;;;;;;;;;2.80;99.90;;;;;;5063338;28;20707;-88
2021/12/26 02:56:12;;;;;;;;;;;2.70;99.90;;;;;;5065256;28;19908;-90
2021/12/26 02:58:38;;;;;;;;;;;2.70;99.90;;;;;;5080775;28;20369;-88
2021/12/26 03:01:04;;;;;;;;;;;2.70;99.90;;;;;;5066006;28;19970;-88
2021/12/26 03:03:31;;;;;;;;;;;2.70;99.90;;;;;;5067391;28;19912;-90
2021/12/26 03:05:59;;;;;;;;;;;2.80;99.90;;;;;;5075810;28;19927;-90
2021/12/26 03:08:26;;;;;;;;;;;2.80;99.90;;;;;;5064297;28;19928;-89
2021/12/26 03:10:53;;;;;;;;;;;2.70;99.90;;;;;;5061664;28;19917;-90
2021/12/26 03:13:19;;;;;;;;;;;2.80;99.90;;;;;;5079572;28;19912;-89
2021/12/26 03:15:45;;;;;;;;;;;2.70;99.90;;;;;;5044002;28;19921;-90
2021/12/26 03:18:10;;;;;;;;;;;2.80;99.90;;;;;;5063256;28;19919;-88
2021/12/26 03:20:39;;;;;;;;;;;2.60;99.90;;;;;;5064441;28;19920;-90
2021/12/26 03:23:05;;;;;;;;;;;2.60;99.90;;;;;;5060005;28;20129;-89
2021/12/26 03:25:34;;;;;;;;;;;2.60;99.90;;;;;;5046041;28;19920;-89
2021/12/26 03:28:02;;;;;;;;;;;2.70;99.90;;;;;;5067463;28;19916;-88
2021/12/26 03:30:28;;;;;;;;;;;2.80;99.90;;;;;;5076663;28;19908;-88
2021/12/26 03:32:54;;;;;;;;;;;2.80;99.90;;;;;;5065683;28;19980;-89
2021/12/26 03:35:20;;;;;;;;;;;2.70;99.90;;;;;;5067512;28;19924;-89
2021/12/26 03:37:46;;;;;;;;;;;2.90;99.90;;;;;;5064878;28;20041;-89
2021/12/26 03:40:12;;;;;;;;;;;2.80;99.90;;;;;;5060674;28;20030;-88
2021/12/26 03:42:38;;;;;;;;;;;2.70;99.90;;;;;;5060472;28;20352;-88
2021/12/26 03:45:05;;;;;;;;;;;2.60;99.90;;;;;;5050204;28;19912;-89
2021/12/26 03:47:33;;;;;;;;;;;2.50;99.90;;;;;;5080688;28;19912;-90
2021/12/26 03:50:00;;;;;;;;;;;2.70;99.90;;;;;;5057154;28;19935;-89
2021/12/26 03:52:26;;;;;;;;;;;2.60;99.90;;;;;;5042366;28;19923;-89
2021/12/26 03:54:53;;;;;;;;;;;2.60;99.90;;;;;;5046387;28;19917;-89
2021/12/26 03:57:18;;;;;;;;;;;2.70;99.90;;;;;;5078483;28;19912;-87
2021/12/26 03:59:44;;;;;;;;;;;2.70;99.90;;;;;;5067259;28;19942;-89
2021/12/26 04:02:12;;;;;;;;;;;2.70;99.90;;;;;;5060057;28;19966;-90
2021/12/26 04:04:38;;;;;;;;;;;2.70;99.90;;;;;;5044944;28;19920;-89
2021/12/26 04:07:04;;;;;;;;;;;2.60;99.90;;;;;;5056582;28;19962;-90
2021/12/26 04:09:29;;;;;;;;;;;2.60;99.90;;;;;;5058844;28;19909;-88
2021/12/26 04:11:57;;;;;;;;;;;2.60;99.90;;;;;;5045659;28;19917;-91
2021/12/26 04:14:22;;;;;;;;;;;2.60;99.90;;;;;;5064178;28;19908;-88
2021/12/26 04:16:48;;;;;;;;;;;2.50;99.90;;;;;;5059596;28;20337;-90
2021/12/26 04:19:14;;;;;;;;;;;2.60;99.90;;;;;;5064168;28;19912;-90
2021/12/26 04:21:40;;;;;;;;;;;2.60;99.90;;;;;;5058139;28;19912;-87
2021/12/26 04:24:06;;;;;;;;;;;2.60;99.90;;;;;;5061029;28;20311;-90
2021/12/26 04:26:33;;;;;;;;;;;2.50;99.90;;;;;;5058357;28;19916;-90
2021/12/26 04:28:58;;;;;;;;;;;2.50;99.90;;;;;;5064653;28;19955;-89
2021/12/26 04:31:24;;;;;;;;;;;2.50;99.90;;;;;;5041859;28;19959;-90
2021/12/26 04:33:49;;;;;;;;;;;2.60;99.90;;;;;;5060522;28;19920;-88
2021/12/26 04:36:15;;;;;;;;;;;2.70;99.90;;;;;;5064746;28;19909;-89
2021/12/26 04:38:41;;;;;;;;;;;2.70;99.90;;;;;;5087224;28;19912;-88
2021/12/26 04:41:08;;;;;;;;;;;2.80;99.90;;;;;;5061236;28;19927;-88
2021/12/26 04:43:36;;;;;;;;;;;2.80;99.90;;;;;;5064289;28;19919;-89
2021/12/26 04:46:05;;;;;;;;;;;2.80;99.90;;;;;;5062643;28;20466;-89
2021/12/26 04:48:30;;;;;;;;;;;2.80;99.90;;;;;;5064656;28;19917;-88
2021/12/26 04:50:56;;;;;;;;;;;2.60;99.90;;;;;;5059358;28;19957;-86
2021/12/26 04:53:22;;;;;;;;;;;2.60;99.90;;;;;;5061450;28;20011;-88
2021/12/26 04:55:50;;;;;;;;;;;2.50;99.90;;;;;;5068762;28;19913;-90
2021/12/26 04:58:17;;;;;;;;;;;2.50;99.90;;;;;;5064604;28;19912;-89
2021/12/26 05:00:44;;;;;;;;;;;2.60;99.90;;;;;;5096131;28;20472;-88
2021/12/26 05:03:13;;;;;;;;;;;2.60;99.90;;;;;;5076593;28;19916;-91
2021/12/26 05:05:38;;;;;;;;;;;2.50;99.90;;;;;;5072266;28;19916;-86
2021/12/26 05:08:06;;;;;;;;;;;2.70;99.90;;;;;;5068796;28;19944;-88
2021/12/26 05:10:32;;;;;;;;;;;2.60;99.90;;;;;;5078697;28;19909;-89
2021/12/26 05:12:59;;;;;;;;;;;2.50;99.90;;;;;;5063075;28;20088;-90
2021/12/26 05:15:26;;;;;;;;;;;2.40;99.90;;;;;;5042957;28;19921;-88
2021/12/26 05:17:53;;;;;;;;;;;2.40;99.90;;;;;;5075809;28;19912;-89
2021/12/26 05:20:20;;;;;;;;;;;2.60;99.90;;;;;;5062201;28;19925;-90
2021/12/26 05:22:50;;;;;;;;;;;2.60;99.90;;;;;;5062050;28;19920;-89
2021/12/26 05:25:16;;;;;;;;;;;2.70;99.90;;;;;;5059814;28;19924;-87
2021/12/26 05:27:41;;;;;;;;;;;2.60;99.90;;;;;;5044962;28;19919;-88
2021/12/26 05:30:10;;;;;;;;;;;2.60;99.90;;;;;;5079279;28;19909;-88
2021/12/26 05:32:35;;;;;;;;;;;2.50;99.90;;;;;;5042807;28;19920;-89
2021/12/26 05:35:01;;;;;;;;;;;2.50;99.90;;;;;;5079214;28;19935;-88
2021/12/26 05:37:26;;;;;;;;;;;2.50;99.90;;;;;;5080275;28;20348;-90
2021/12/26 05:39:53;;;;;;;;;;;2.40;99.90;;;;;;5059123;28;20038;-90
2021/12/26 05:42:22;;;;;;;;;;;2.50;99.90;;;;;;5063834;28;20027;-89
2021/12/26 05:44:48;;;;;;;;;;;2.50;99.90;;;;;;5061321;28;19966;-88
2021/12/26 05:47:14;;;;;;;;;;;2.60;99.90;;;;;;5078109;28;19908;-87
2021/12/26 05:49:39;;;;;;;;;;;2.60;99.90;;;;;;5073724;28;19908;-88
2021/12/26 05:52:06;;;;;;;;;;;2.60;99.90;;;;;;5062775;28;19969;-91
2021/12/26 05:54:32;;;;;;;;;;;2.60;99.90;;;;;;5075056;28;20006;-89
2021/12/26 05:56:57;;;;;;;;;;;2.40;99.90;;;;;;5046167;28;20011;-88
2021/12/26 05:59:23;;;;;;;;;;;2.30;99.90;;;;;;5069143;28;20348;-90
2021/12/26 06:01:52;;;;;;;;;;;2.30;99.90;;;;;;5077708;28;19923;-91
2021/12/26 06:04:19;;;;;;;;;;;2.40;99.90;;;;;;5057397;28;20336;-88
2021/12/26 06:06:46;;;;;;;;;;;2.50;99.90;;;;;;5053376;28;19955;-88
2021/12/26 06:09:11;;;;;;;;;;;2.40;99.90;;;;;;5074627;28;19912;-91
2021/12/26 06:11:38;;;;;;;;;;;2.40;99.90;;;;;;5058550;28;19947;-88
2021/12/26 06:14:06;;;;;;;;;;;2.50;99.90;;;;;;5073863;28;20293;-90
2021/12/26 06:16:31;;;;;;;;;;;2.40;99.90;;;;;;5091454;28;20129;-90
2021/12/26 06:18:58;;;;;;;;;;;2.40;99.90;;;;;;5080216;28;20366;-89
2021/12/26 06:21:24;;;;;;;;;;;2.30;99.90;;;;;;5068656;28;20287;-87
2021/12/26 06:23:52;;;;;;;;;;;2.20;99.90;;;;;;5045165;28;20023;-87
2021/12/26 06:26:19;;;;;;;;;;;2.30;99.90;;;;;;5067484;28;19908;-90
2021/12/26 06:28:46;;;;;;;;;;;2.30;99.90;;;;;;5073955;28;19908;-89
2021/12/26 06:31:13;;;;;;;;;;;2.40;99.90;;;;;;5043559;28;19916;-90
2021/12/26 06:33:40;;;;;;;;;;;2.50;99.90;;;;;;5065743;28;19917;-90
2021/12/26 06:36:06;;;;;;;;;;;2.40;99.90;;;;;;5074384;28;19953;-89
2021/12/26 06:38:34;;;;;;;;;;;2.40;99.90;;;;;;5063562;28;19919;-88
2021/12/26 06:41:04;;;;;;;;;;;2.30;99.90;;;;;;5051778;28;20028;-89
2021/12/26 06:43:33;;;;;;;;;;;2.20;99.90;;;;;;5070835;28;19955;-91
2021/12/26 06:45:59;;;;;;;;;;;2.30;99.90;;;;;;5064285;28;19915;-89
2021/12/26 06:48:26;;;;;;;;;;;2.30;99.90;;;;;;5063612;28;19916;-90
2021/12/26 06:50:53;;;;;;;;;;;2.40;99.90;;;;;;5057360;28;19999;-89
2021/12/26 06:53:19;;;;;;;;;;;2.40;99.90;;;;;;5050496;28;19916;-90
2021/12/26 06:55:45;;;;;;;;;;;2.40;99.90;;;;;;5074984;28;20327;-89
2021/12/26 06:58:12;;;;;;;;;;;2.60;99.90;;;;;;5068216;28;19954;-90
2021/12/26 07:00:39;;;;;;;;;;;2.40;99.90;;;;;;5057751;28;19924;-89
2021/12/26 07:03:04;;;;;;;;;;;2.20;99.90;;;;;;5064221;28;19912;-90
2021/12/26 07:05:30;;;;;;;;;;;2.10;99.90;;;;;;5049252;28;20283;-89
2021/12/26 07:07:57;;;;;;;;;;;2.20;99.90;;;;;;5067215;28;19908;-90
2021/12/26 07:10:22;;;;;;;;;;;2.30;99.90;;;;;;5048295;28;19917;-90
2021/12/26 07:12:48;;;;;;;;;;;2.30;99.90;;;;;;5080325;28;19916;-89
2021/12/26 07:15:14;;;;;;;;;;;2.30;99.90;;;;;;5048165;28;19939;-88
2021/12/26 07:17:40;;;;;;;;;;;2.30;99.90;;;;;;5048160;28;19913;-87
2021/12/26 07:20:08;;;;;;;;;;;2.30;99.90;;;;;;5048818;28;20352;-90
2021/12/26 07:22:34;;;;;;;;;;;2.20;99.90;;;;;;5062024;28;19963;-89
2021/12/26 07:24:59;;;;;;;;;;;2.20;99.90;;;;;;5061302;28;20296;-91
2021/12/26 07:27:26;;;;;;;;;;;2.20;99.90;;;;;;5060664;28;19909;-89
2021/12/26 07:29:52;;;;;;;;;;;2.20;99.90;;;;;;5066552;28;19919;-91
2021/12/26 07:32:17;;;;;;;;;;;2.30;99.90;;;;;;5047319;28;19913;-89
2021/12/26 07:34:43;;;;;;;;;;;2.40;99.90;;;;;;5050999;28;19916;-89
2021/12/26 07:37:10;;;;;;;;;;;2.40;99.90;;;;;;5068943;28;19908;-90
2021/12/26 07:39:36;;;;;;;;;;;2.30;99.90;;;;;;5054130;28;19923;-90
2021/12/26 07:42:02;;;;;;;;;;;2.40;99.90;;;;;;5060788;28;20256;-90
2021/12/26 07:44:29;;;;;;;;;;;2.30;99.90;;;;;;5067410;28;20002;-89
2021/12/26 07:46:54;;;;;;;;;;;2.20;99.90;;;;;;5066525;28;20121;-90
2021/12/26 07:49:22;;;;;;;;;;;2.30;99.90;;;;;;5050572;28;20307;-88
2021/12/26 07:51:49;;;;;;;;;;;2.30;99.90;;;;;;5069284;28;19919;-88
2021/12/26 07:54:20;;;;;;;;;;;2.40;99.90;;;;;;5063470;28;19920;-87
2021/12/26 07:56:47;;;;;;;;;;;2.40;99.90;;;;;;5054487;28;19913;-91
2021/12/26 07:59:13;;;;;;;;;;;2.50;99.90;;;;;;5064190;28;19920;-89
2021/12/26 08:01:39;;;;;;;;;;;2.50;99.90;;;;;;5084579;28;19935;-89
2021/12/26 08:04:07;;;;;;;;;;;2.30;99.90;;;;;;5071242;28;20015;-89
2021/12/26 08:06:36;;;;;;;;;;;2.40;99.90;;;;;;5053465;28;19921;-91
2021/12/26 08:09:02;;;;;;;;;;;2.30;99.90;;;;;;5073267;28;19965;-90
2021/12/26 08:11:28;;;;;;;;;;;2.30;99.90;;;;;;5051007;28;20276;-89
2021/12/26 08:13:53;;;;;;;;;;;2.30;99.90;;;;;;5064229;28;19912;-88
2021/12/26 08:16:19;;;;;;;;;;;2.30;99.90;;;;;;5035460;28;19912;-87
2021/12/26 08:18:45;;;;;;;;;;;2.30;99.90;;;;;;5063409;28;19924;-87
2021/12/26 08:21:10;;;;;;;;;;;2.30;99.90;;;;;;5045310;28;20024;-90
2021/12/26 08:23:36;;;;;;;;;;;2.40;99.90;;;;;;5071660;28;19916;-88
2021/12/26 08:26:02;;;;;;;;;;;2.40;99.90;;;;;;5071509;28;20026;-89
2021/12/26 08:28:28;;;;;;;;;;;2.40;99.90;;;;;;5049710;28;20372;-89
2021/12/26 08:30:53;;;;;;;;;;;2.40;99.90;;;;;;5070524;28;19912;-90
2021/12/26 08:33:19;;;;;;;;;;;2.40;99.90;;;;;;5062793;28;19923;-88
2021/12/26 08:35:48;;;;;;;;;;;2.60;99.90;;;;;;5080504;28;19947;-90
2021/12/26 08:38:15;;;;;;;;;;;2.60;99.90;;;;;;5046992;28;19916;-88
2021/12/26 08:40:41;;;;;;;;;;;2.60;99.90;;;;;;5056863;28;20007;-88
2021/12/26 08:43:07;;;;;;;;;;;2.70;99.90;;;;;;5047038;28;20063;-88
2021/12/26 08:45:33;;;;;;;;;;;2.70;99.90;;;;;;5061786;28;19916;-88
2021/12/26 08:48:01;;;;;;;;;;;2.60;99.90;;;;;;5067139;28;19908;-90
2021/12/26 08:50:27;;;;;;;;;;;2.60;99.90;;;;;;5067102;28;19955;-91
2021/12/26 08:52:55;;;;;;;;;;;2.60;99.90;;;;;;5048126;28;19916;-91
2021/12/26 08:55:21;;;;;;;;;;;2.60;99.90;;;;;;5066738;28;19913;-89
2021/12/26 08:57:47;;;;;;;;;;;2.60;99.90;;;;;;5063867;28;20356;-90
2021/12/26 09:00:14;;;;;;;;;;;2.80;99.90;;;;;;5048706;28;19925;-89
2021/12/26 09:02:40;;;;;;;;;;;2.90;99.90;;;;;;5063208;28;20011;-87
2021/12/26 09:05:08;;;;;;;;;;;2.90;99.90;;;;;;5064079;28;19977;-88
2021/12/26 09:07:34;;;;;;;;;;;2.70;99.90;;;;;;5048751;28;19919;-89
2021/12/26 09:10:00;;;;;;;;;;;2.60;99.90;;;;;;5066711;28;19908;-88
2021/12/26 09:12:27;;;;;;;;;;;2.60;99.90;;;;;;5071270;28;19925;-87
2021/12/26 09:14:53;;;;;;;;;;;2.60;99.90;;;;;;5051385;28;20272;-89
2021/12/26 09:17:19;;;;;;;;;;;2.80;99.90;;;;;;5076911;28;19909;-89
2021/12/26 09:19:46;;;;;;;;;;;2.90;99.90;;;;;;5057943;28;20015;-88
2021/12/26 09:22:15;;;;;;;;;;;2.80;99.90;;;;;;5062203;28;20000;-89
2021/12/26 09:24:41;;;;;;;;;;;2.90;99.90;;;;;;5062286;28;19964;-86
2021/12/26 09:27:07;;;;;;;;;;;2.90;99.90;;;;;;5067213;28;19934;-88
2021/12/26 09:29:34;;;;;;;;;;;2.90;99.90;;;;;;5073790;28;19909;-89
2021/12/26 09:32:02;;;;;;;;;;;3.00;99.90;;;;;;5064150;28;19916;-88
2021/12/26 09:34:29;;;;;;;;;;;2.80;99.90;;;;;;5067433;28;19912;-89
2021/12/26 09:36:55;;;;;;;;;;;2.80;99.90;;;;;;5074887;28;19916;-87
2021/12/26 09:39:22;;;;;;;;;;;2.80;99.90;;;;;;5075350;28;19934;-88
2021/12/26 09:41:51;;;;;;;;;;;2.90;99.90;;;;;;5070670;28;20364;-89
2021/12/26 09:44:17;;;;;;;;;;;2.90;99.90;;;;;;5072976;28;19908;-86
2021/12/26 09:46:43;;;;;;;;;;;3.00;99.90;;;;;;5079269;28;19916;-87
2021/12/26 09:49:09;;;;;;;;;;;2.90;99.90;;;;;;5073849;28;19908;-87
2021/12/26 09:51:34;;;;;;;;;;;2.90;99.90;;;;;;5069269;28;19908;-89
2021/12/26 09:54:00;;;;;;;;;;;3.20;99.90;;;;;;5069442;28;19912;-88
2021/12/26 09:56:26;;;;;;;;;;;3.30;99.90;;;;;;5069583;28;20356;-90
2021/12/26 09:59:05;;;;;;;;;;;3.20;99.90;;;;;;5068731;28;20003;-88
2021/12/26 10:01:33;;;;;;;;;;;3.20;99.90;;;;;;5063706;28;19920;-89
2021/12/26 10:04:03;;;;;;;;;;;3.30;99.90;;;;;;5068760;28;19919;-87
2021/12/26 10:06:33;;;;;;;;;;;3.40;99.90;;;;;;5064696;28;19908;-87
2021/12/26 10:09:01;;;;;;;;;;;3.40;99.90;;;;;;5050208;28;19923;-89
2021/12/26 10:11:35;;;;;;;;;;;3.50;99.90;;;;;;5071311;28;19912;-86
2021/12/26 10:14:04;;;;;;;;;;;3.50;99.90;;;;;;5069503;28;19999;-87
2021/12/26 10:16:36;;;;;;;;;;;3.60;99.90;;;;;;5061359;28;19963;-89
2021/12/26 10:19:03;;;;;;;;;;;3.60;99.90;;;;;;5070752;28;19919;-88
2021/12/26 10:21:29;;;;;;;;;;;3.50;99.90;;;;;;5063022;28;19917;-88
2021/12/26 10:23:56;;;;;;;;;;;3.60;99.90;;;;;;5067088;28;19916;-90
2021/12/26 10:26:24;;;;;;;;;;;3.60;99.90;;;;;;5052094;28;19921;-87
2021/12/26 10:29:11;;;;;;;;;;;3.60;99.90;;;;;;5066730;28;20309;-90
2021/12/26 10:31:38;;;;;;;;;;;3.60;99.90;;;;;;5074159;28;19916;-88
2021/12/26 10:34:04;;;;;;;;;;;3.50;99.90;;;;;;5058308;28;19923;-89
2021/12/26 10:36:31;;;;;;;;;;;3.40;99.90;;;;;;5050632;28;19913;-90
2021/12/26 10:39:06;;;;;;;;;;;3.40;99.90;;;;;;5076500;28;19996;-90
2021/12/26 10:41:32;;;;;;;;;;;3.40;99.90;;;;;;5071007;28;19912;-91
2021/12/26 10:43:58;;;;;;;;;;;3.70;99.90;;;;;;5069701;28;19912;-89
2021/12/26 10:46:24;;;;;;;;;;;4.20;99.90;;;;;;5059850;28;19951;-89
2021/12/26 10:48:50;;;;;;;;;;;4.30;99.90;;;;;;5050455;28;20395;-90
2021/12/26 10:51:34;;;;;;;;;;;4.50;99.90;;;;;;5050795;28;19917;-87
2021/12/26 10:54:16;;;;;;;;;;;4.40;99.90;;;;;;5079743;28;20007;-89
2021/12/26 10:57:00;;;;;;;;;;;4.60;99.90;;;;;;5049177;28;19916;-87
2021/12/26 10:59:25;;;;;;;;;;;4.70;99.90;;;;;;5066242;28;19916;-86
2021/12/26 11:01:51;;;;;;;;;;;4.40;99.90;;;;;;5048969;28;19982;-89
2021/12/26 11:04:18;;;;;;;;;;;4.30;99.90;;;;;;5064973;28;19912;-87
2021/12/26 11:07:02;;;;;;;;;;;4.60;99.90;;;;;;5063528;28;20524;-86
2021/12/26 11:09:28;;;;;;;;;;;4.50;99.90;;;;;;5065842;28;19936;-89
2021/12/26 11:12:12;;;;;;;;;;;4.60;99.90;;;;;;5086809;28;20325;-89
2021/12/26 11:15:03;;;;;;;;;;;4.60;99.90;;;;;;5063020;28;19912;-88
2021/12/26 11:17:33;;;;;;;;;;;4.50;99.90;;;;;;5064313;28;19908;-90
2021/12/26 11:19:59;;;;;;;;;;;4.50;99.90;;;;;;5065266;28;19919;-86
2021/12/26 11:22:25;;;;;;;;;;;4.50;99.90;;;;;;5077960;28;20273;-90
2021/12/26 11:24:53;;;;;;;;;;;4.20;99.90;;;;;;5061148;28;19921;-87
2021/12/26 11:27:22;;;;;;;;;;;4.10;99.90;;;;;;5064073;28;19912;-87
2021/12/26 11:29:48;;;;;;;;;;;4.20;99.90;;;;;;5065782;28;19912;-89
2021/12/26 11:32:18;;;;;;;;;;;4.40;99.90;;;;;;5050433;28;19920;-87
2021/12/26 11:34:48;;;;;;;;;;;4.60;99.90;;;;;;5066315;28;19912;-85
2021/12/26 11:37:14;;;;;;;;;;;4.60;99.90;;;;;;5061106;28;19913;-87
2021/12/26 11:39:40;;;;;;;;;;;4.50;99.90;;;;;;5061670;28;19913;-88
2021/12/26 11:42:17;;;;;;;;;;;4.60;99.90;;;;;;5052311;28;20343;-89
2021/12/26 11:45:06;;;;;;;;;;;4.70;99.90;;;;;;5075495;28;19987;-89
2021/12/26 11:47:57;;;;;;;;;;;4.60;99.90;;;;;;5072819;28;20245;-87
2021/12/26 11:50:28;;;;;;;;;;;4.60;99.90;;;;;;5070786;28;20363;-91
2021/12/26 11:52:53;;;;;;;;;;;4.60;99.90;;;;;;5064823;28;19908;-88
2021/12/26 11:55:48;;;;;;;;;;;4.50;99.90;;;;;;5058700;28;19912;-88
2021/12/26 11:58:16;;;;;;;;;;;4.70;99.90;;;;;;5016033;28;19917;-87
2021/12/26 12:00:49;;;;;;;;;;;4.80;99.90;;;;;;5064154;28;20006;-89
2021/12/26 12:03:20;;;;;;;;;;;4.70;99.90;;;;;;5089041;28;19971;-88
2021/12/26 12:05:46;;;;;;;;;;;4.80;99.90;;;;;;5068065;28;19923;-88
2021/12/26 12:08:15;;;;;;;;;;;4.70;99.90;;;;;;5067649;28;19916;-88
2021/12/26 12:10:42;;;;;;;;;;;4.70;99.90;;;;;;5054203;28;19916;-88
2021/12/26 12:13:09;;;;;;;;;;;4.80;99.90;;;;;;5066573;28;19937;-88
2021/12/26 12:15:46;;;;;;;;;;;5.10;99.90;;;;;;5069401;28;19997;-89
2021/12/26 12:18:14;;;;;;;;;;;5.20;99.90;;;;;;5048847;28;19913;-89
2021/12/26 12:20:40;;;;;;;;;;;5.00;99.90;;;;;;5068126;28;20050;-89
2021/12/26 12:23:08;;;;;;;;;;;5.00;99.90;;;;;;5048008;28;20007;-90
2021/12/26 12:25:38;;;;;;;;;;;5.10;99.90;;;;;;5067330;28;20674;-88
2021/12/26 12:28:14;;;;;;;;;;;4.80;99.90;;;;;;5087399;28;19908;-89
2021/12/26 12:30:41;;;;;;;;;;;4.70;99.90;;;;;;5047726;28;19913;-87
2021/12/26 12:33:12;;;;;;;;;;;4.60;99.90;;;;;;5062205;28;19917;-89
2021/12/26 12:35:56;;;;;;;;;;;4.60;99.90;;;;;;5060807;28;20420;-90
2021/12/26 12:38:22;;;;;;;;;;;4.70;99.90;;;;;;5079496;28;19916;-88
2021/12/26 12:40:48;;;;;;;;;;;4.80;99.90;;;;;;5059705;28;19916;-86
2021/12/26 12:43:18;;;;;;;;;;;4.70;99.90;;;;;;5066842;28;20015;-86
2021/12/26 12:45:59;;;;;;;;;;;4.60;99.90;;;;;;5061542;28;19908;-90
2021/12/26 12:48:26;;;;;;;;;;;4.80;99.90;;;;;;5067037;28;19958;-88
2021/12/26 12:50:53;;;;;;;;;;;4.70;99.90;;;;;;5065977;28;19915;-88
2021/12/26 12:53:41;;;;;;;;;;;4.60;99.90;;;;;;5053550;28;19921;-88
2021/12/26 12:56:30;;;;;;;;;;;4.80;99.90;;;;;;5069225;28;19908;-90
2021/12/26 12:59:18;;;;;;;;;;;4.90;99.90;;;;;;5063556;28;19922;-86
2021/12/26 13:01:47;;;;;;;;;;;5.00;99.90;;;;;;5061089;28;20279;-90
2021/12/26 13:04:14;;;;;;;;;;;5.00;99.90;;;;;;5061898;28;19920;-88
2021/12/26 13:06:49;;;;;;;;;;;4.90;99.90;;;;;;5044867;28;19916;-88
2021/12/26 13:09:14;;;;;;;;;;;5.00;99.90;;;;;;5063395;28;19915;-88
2021/12/26 13:11:40;;;;;;;;;;;5.10;99.90;;;;;;5059582;28;19912;-88
2021/12/26 13:14:06;;;;;;;;;;;4.90;99.90;;;;;;5040118;28;19927;-88
2021/12/26 13:16:31;;;;;;;;;;;5.20;99.90;;;;;;5064076;28;20003;-89
2021/12/26 13:19:04;;;;;;;;;;;5.30;99.90;;;;;;5073524;28;19913;-87
2021/12/26 13:21:30;;;;;;;;;;;5.30;99.90;;;;;;5062321;28;19921;-88
2021/12/26 13:23:57;;;;;;;;;;;5.20;99.90;;;;;;5070312;28;19920;-89
2021/12/26 13:26:23;;;;;;;;;;;5.30;99.90;;;;;;5064741;28;19916;-87
2021/12/26 13:28:50;;;;;;;;;;;5.10;99.90;;;;;;5062387;28;19915;-89
2021/12/26 13:31:18;;;;;;;;;;;4.90;99.90;;;;;;5044171;28;19927;-89
2021/12/26 13:33:46;;;;;;;;;;;4.90;99.90;;;;;;5062948;28;19938;-87
2021/12/26 13:36:12;;;;;;;;;;;4.80;99.90;;;;;;5058163;28;19912;-88
2021/12/26 13:38:39;;;;;;;;;;;4.90;99.90;;;;;;5064912;28;19919;-89
2021/12/26 13:41:12;;;;;;;;;;;4.80;99.90;;;;;;5064293;28;19916;-86
2021/12/26 13:43:39;;;;;;;;;;;4.70;99.90;;;;;;5063764;28;20003;-87
2021/12/26 13:46:06;;;;;;;;;;;4.80;99.90;;;;;;5067513;28;19912;-88
2021/12/26 13:48:34;;;;;;;;;;;4.70;99.90;;;;;;5056252;28;19916;-90
2021/12/26 13:51:20;;;;;;;;;;;4.70;99.90;;;;;;5060459;28;19912;-88
2021/12/26 13:53:48;;;;;;;;;;;4.90;99.90;;;;;;5057547;28;20510;-88
2021/12/26 13:56:13;;;;;;;;;;;4.60;99.90;;;;;;5043192;28;19913;-88
2021/12/26 13:58:40;;;;;;;;;;;4.50;99.90;;;;;;5043168;28;19967;-90
2021/12/26 14:01:06;;;;;;;;;;;4.40;99.90;;;;;;5070703;28;19931;-90
2021/12/26 14:03:31;;;;;;;;;;;4.60;99.90;;;;;;5058879;28;19913;-89
2021/12/26 14:05:57;;;;;;;;;;;4.70;99.90;;;;;;5042679;28;19955;-90
2021/12/26 14:08:26;;;;;;;;;;;4.70;99.90;;;;;;5060385;28;19916;-88
2021/12/26 14:10:56;;;;;;;;;;;4.80;99.90;;;;;;5047244;28;20358;-89
2021/12/26 14:13:23;;;;;;;;;;;5.00;99.90;;;;;;5066701;28;19904;-90
2021/12/26 14:15:55;;;;;;;;;;;4.90;99.90;;;;;;5061028;28;19913;-88
2021/12/26 14:18:25;;;;;;;;;;;4.90;99.90;;;;;;5060228;28;19959;-88
2021/12/26 14:20:51;;;;;;;;;;;4.70;99.90;;;;;;5047316;28;19971;-88
2021/12/26 14:23:34;;;;;;;;;;;4.50;99.90;;;;;;5066703;28;20366;-89
2021/12/26 14:26:01;;;;;;;;;;;4.50;99.90;;;;;;5061042;28;20380;-89
2021/12/26 14:28:29;;;;;;;;;;;4.60;99.90;;;;;;5063216;28;20470;-88
2021/12/26 14:30:57;;;;;;;;;;;4.60;99.90;;;;;;5080813;28;19912;-89
2021/12/26 14:33:30;;;;;;;;;;;4.70;99.90;;;;;;5070285;28;19909;-88
2021/12/26 14:36:02;;;;;;;;;;;4.80;99.90;;;;;;5087468;28;19920;-88
2021/12/26 14:38:28;;;;;;;;;;;4.80;99.90;;;;;;5066319;28;19912;-88
2021/12/26 14:40:59;;;;;;;;;;;4.80;99.90;;;;;;5048675;28;19975;-90